Time;durP1;ratioP1;P1;durP2;ratioP2;P2;SDS_P1;SDS_P2;PMS_P1;PMS_P2;Temp;Humidity;BMP_temperature;BMP_pressure;BME280_temperature;BME280_humidity;BME280_pressure;Samples;Min_cycle;Max_cycle;Signal;HPM_P1;HPM_P2
2023/10/13 00:01:34;;;;;;;27.83;10.00;;;13.70;99.90;;;;;;5045596;28;20519;-62
2023/10/13 00:04:01;;;;;;;40.25;9.93;;;13.70;99.90;;;;;;5048705;28;20044;-62
2023/10/13 00:06:27;;;;;;;37.47;10.98;;;13.70;99.90;;;;;;5048001;28;20162;-62
2023/10/13 00:08:53;;;;;;;34.92;11.43;;;13.70;99.90;;;;;;5048822;28;20120;-62
2023/10/13 00:11:21;;;;;;;32.28;11.32;;;13.80;99.90;;;;;;5048082;28;20037;-62
2023/10/13 00:13:50;;;;;;;31.27;12.27;;;13.80;99.90;;;;;;5048149;28;20102;-62
2023/10/13 00:16:27;;;;;;;31.63;12.10;;;13.80;99.90;;;;;;5048668;28;20045;-62
2023/10/13 00:18:57;;;;;;;27.33;10.75;;;13.70;99.90;;;;;;5028943;28;20049;-62
2023/10/13 00:21:35;;;;;;;34.17;12.05;;;13.70;99.90;;;;;;5048309;28;20052;-62
2023/10/13 00:24:05;;;;;;;31.65;11.35;;;13.80;99.90;;;;;;5047299;28;20106;-79
2023/10/13 00:26:35;;;;;;;37.35;12.85;;;13.90;99.90;;;;;;5048162;28;20569;-62
2023/10/13 00:29:18;;;;;;;36.72;13.00;;;13.80;99.90;;;;;;5048214;28;20041;-62
2023/10/13 00:31:48;;;;;;;35.95;13.70;;;13.90;99.90;;;;;;5074683;28;20147;-62
2023/10/13 00:34:27;;;;;;;28.90;14.18;;;13.90;99.90;;;;;;5048379;28;20087;-83
2023/10/13 00:39:40;;;;;;;45.10;15.07;;;13.90;99.90;;;;;;5047824;28;20080;-62
2023/10/13 00:42:07;;;;;;;33.65;15.40;;;14.00;99.90;;;;;;5047824;28;20110;-62
2023/10/13 00:44:42;;;;;;;37.92;15.48;;;14.10;99.90;;;;;;5047075;28;20049;-62
2023/10/13 00:47:09;;;;;;;40.58;15.15;;;14.10;99.90;;;;;;5047478;28;20072;-62
2023/10/13 00:49:39;;;;;;;29.92;14.93;;;14.10;99.90;;;;;;5045500;28;20132;-62
2023/10/13 00:52:10;;;;;;;;;;;14.20;99.90;;;;;;5047966;28;20495;-62
2023/10/13 00:54:37;;;;;;;32.63;13.98;;;14.10;99.90;;;;;;5047598;28;19971;-79
2023/10/13 00:57:46;;;;;;;34.25;13.25;;;14.20;99.90;;;;;;5045918;28;20398;-62
2023/10/13 01:00:12;;;;;;;28.37;14.10;;;14.20;99.90;;;;;;5045107;28;20540;-62
2023/10/13 01:02:38;;;;;;;35.30;14.75;;;14.20;99.90;;;;;;5046285;28;20768;-62
2023/10/13 01:05:19;;;;;;;39.42;15.15;;;14.20;99.90;;;;;;5047763;28;20151;-62
2023/10/13 01:07:50;;;;;;;33.13;15.90;;;14.40;99.90;;;;;;5047010;28;20503;-62
2023/10/13 01:10:16;;;;;;;38.85;15.32;;;14.40;99.90;;;;;;5045934;28;20045;-62
2023/10/13 01:12:43;;;;;;;34.28;15.52;;;14.30;99.90;;;;;;5047563;28;20090;-63
2023/10/13 01:15:11;;;;;;;32.38;14.60;;;14.40;99.90;;;;;;5045740;28;20052;-62
2023/10/13 01:17:37;;;;;;;34.40;14.98;;;14.40;99.90;;;;;;5047150;28;20067;-65
2023/10/13 01:20:04;;;;;;;27.33;14.38;;;14.40;99.90;;;;;;5044327;28;20051;-62
2023/10/13 01:22:32;;;;;;;36.60;15.63;;;14.50;99.90;;;;;;5047793;28;20041;-70
2023/10/13 01:25:19;;;;;;;34.17;15.10;;;14.60;99.90;;;;;;5047129;28;20044;-84
2023/10/13 01:27:48;;;;;;;40.15;15.88;;;14.60;99.90;;;;;;5040477;28;20087;-62
2023/10/13 01:30:22;;;;;;;38.75;15.65;;;14.70;99.90;;;;;;5047441;28;20086;-62
2023/10/13 01:32:50;;;;;;;38.92;16.25;;;14.80;99.90;;;;;;5045529;28;20056;-62
2023/10/13 01:35:18;;;;;;;35.67;15.65;;;14.80;99.90;;;;;;5047197;28;20458;-63
2023/10/13 01:37:45;;;;;;;37.47;16.83;;;14.70;99.90;;;;;;5046813;28;20096;-62
2023/10/13 01:40:18;;;;;;;38.05;16.90;;;14.80;99.90;;;;;;5046458;28;20041;-63
2023/10/13 01:42:55;;;;;;;34.30;16.20;;;14.80;99.90;;;;;;5047891;28;20447;-62
2023/10/13 01:45:21;;;;;;;51.63;17.77;;;15.00;99.90;;;;;;5075708;28;20045;-62
2023/10/13 01:47:50;;;;;;;46.58;17.33;;;15.00;99.90;;;;;;5047560;28;20052;-62
2023/10/13 01:50:25;;;;;;;36.28;17.63;;;15.10;99.90;;;;;;5044213;28;20446;-63
2023/10/13 01:53:00;;;;;;;40.80;17.30;;;15.10;99.90;;;;;;5047353;28;20048;-63
2023/10/13 01:55:26;;;;;;;47.50;17.67;;;15.10;99.90;;;;;;5046954;28;20049;-62
2023/10/13 01:57:54;;;;;;;42.33;17.15;;;15.20;99.90;;;;;;5046255;28;20394;-62
2023/10/13 02:00:20;;;;;;;45.42;16.45;;;15.10;99.90;;;;;;5047276;28;20043;-62
2023/10/13 02:02:49;;;;;;;49.35;16.33;;;15.20;99.90;;;;;;5077868;28;20124;-62
2023/10/13 02:05:17;;;;;;;39.50;16.55;;;15.30;99.90;;;;;;5046580;28;20040;-62
2023/10/13 02:07:45;;;;;;;49.40;17.65;;;15.30;99.90;;;;;;5045724;28;20037;-63
2023/10/13 02:10:13;;;;;;;41.15;15.88;;;15.30;99.90;;;;;;5046109;28;20329;-67
2023/10/13 02:12:42;;;;;;;38.70;15.88;;;15.30;99.90;;;;;;5047035;28;20036;-62
2023/10/13 02:15:22;;;;;;;41.90;16.67;;;15.20;99.90;;;;;;5046201;28;20052;-62
2023/10/13 02:17:51;;;;;;;31.73;14.35;;;15.40;99.90;;;;;;5047235;28;20465;-80
2023/10/13 02:20:25;;;;;;;38.20;14.75;;;15.30;99.90;;;;;;5047674;28;20061;-82
2023/10/13 02:22:51;;;;;;;38.38;14.10;;;15.30;99.90;;;;;;5048238;28;20047;-62
2023/10/13 02:25:35;;;;;;;39.85;15.15;;;15.30;99.90;;;;;;5074248;28;20041;-63
2023/10/13 02:28:02;;;;;;;34.80;14.40;;;15.40;99.90;;;;;;5052787;28;20076;-79
2023/10/13 02:30:27;;;;;;;38.08;15.65;;;15.40;99.90;;;;;;5039434;28;20044;-63
2023/10/13 02:32:55;;;;;;;36.35;13.32;;;15.50;99.90;;;;;;5045742;28;20039;-62
2023/10/13 02:35:29;;;;;;;37.95;15.65;;;15.40;99.90;;;;;;5060984;28;20105;-62
2023/10/13 02:37:58;;;;;;;33.63;13.45;;;15.40;99.90;;;;;;5051107;28;20041;-62
2023/10/13 02:40:24;;;;;;;42.03;13.67;;;15.50;99.90;;;;;;5046255;28;20591;-62
2023/10/13 02:42:50;;;;;;;38.42;12.75;;;15.50;99.90;;;;;;5046382;28;20048;-62
2023/10/13 02:45:17;;;;;;;32.30;12.15;;;15.60;99.90;;;;;;5048877;28;20049;-62
2023/10/13 02:47:44;;;;;;;30.65;12.48;;;15.60;99.90;;;;;;5082086;28;20115;-62
2023/10/13 02:50:12;;;;;;;29.20;12.18;;;15.60;99.90;;;;;;5048736;28;20045;-62
2023/10/13 02:52:41;;;;;;;34.78;13.07;;;15.60;99.90;;;;;;5050192;28;20037;-62
2023/10/13 02:55:14;;;;;;;29.55;11.43;;;15.70;99.90;;;;;;5048812;28;20041;-62
2023/10/13 02:57:40;;;;;;;21.25;10.98;;;15.70;99.90;;;;;;5049858;28;20068;-62
2023/10/13 03:00:15;;;;;;;25.23;10.60;;;15.60;99.90;;;;;;5049711;28;20384;-64
2023/10/13 03:02:53;;;;;;;23.25;11.35;;;15.70;99.90;;;;;;5037869;28;20053;-70
2023/10/13 03:05:22;;;;;;;25.05;10.25;;;15.70;99.90;;;;;;5046029;28;20052;-62
2023/10/13 03:07:50;;;;;;;23.35;10.15;;;15.70;99.90;;;;;;5048697;28;20045;-63
2023/10/13 03:10:19;;;;;;;28.30;10.20;;;15.80;99.90;;;;;;5081564;28;20140;-64
2023/10/13 03:12:48;;;;;;;21.55;10.02;;;15.80;99.90;;;;;;5045554;28;20041;-62
2023/10/13 03:15:17;;;;;;;;;;;15.80;99.90;;;;;;5050437;28;20102;-62
2023/10/13 03:17:43;;;;;;;17.90;8.45;;;15.80;99.90;;;;;;5049380;28;19925;-67
2023/10/13 03:20:22;;;;;;;19.70;9.70;;;15.70;99.90;;;;;;5048700;28;20394;-62
2023/10/13 03:22:52;;;;;;;24.98;9.82;;;15.70;99.90;;;;;;5048732;28;20052;-62
2023/10/13 03:25:24;;;;;;;32.60;10.25;;;15.80;99.90;;;;;;5048595;28;20071;-62
2023/10/13 03:30:17;;;;;;;19.55;7.88;;;15.80;99.90;;;;;;5049439;28;20049;-62
2023/10/13 03:32:46;;;;;;;18.10;9.23;;;15.70;99.90;;;;;;5048667;28;20523;-62
2023/10/13 03:35:14;;;;;;;22.38;9.38;;;15.90;99.90;;;;;;5048503;28;20052;-62
2023/10/13 03:37:40;;;;;;;26.75;10.30;;;15.90;99.90;;;;;;5073831;28;20132;-73
2023/10/13 03:42:59;;;;;;;28.10;11.07;;;15.90;99.90;;;;;;5047527;28;20044;-62
2023/10/13 03:45:26;;;;;;;33.55;13.35;;;16.00;99.90;;;;;;5044314;28;20053;-63
2023/10/13 03:47:52;;;;;;;32.33;13.30;;;16.00;99.90;;;;;;5030752;28;20052;-63
2023/10/13 03:50:32;;;;;;;36.28;13.55;;;15.90;99.90;;;;;;5047981;28;20495;-62
2023/10/13 03:53:00;;;;;;;27.52;12.75;;;16.10;99.90;;;;;;5049512;28;20048;-63
2023/10/13 03:55:29;;;;;;;30.85;13.38;;;16.00;99.90;;;;;;5045506;28;20506;-62
2023/10/13 03:57:54;;;;;;;30.70;13.88;;;16.00;99.90;;;;;;5049016;28;20045;-63
2023/10/13 04:00:24;;;;;;;22.25;11.02;;;16.10;99.90;;;;;;5047562;28;20500;-63
2023/10/13 04:03:06;;;;;;;;;;;16.10;99.90;;;;;;5048687;28;20045;-62
2023/10/13 04:06:00;;;;;;;26.67;11.35;;;16.10;99.90;;;;;;5047842;28;20018;-63
2023/10/13 04:16:15;;;;;;;17.92;8.55;;;16.10;99.90;;;;;;5047777;28;20513;-63
2023/10/13 04:19:03;;;;;;;16.60;6.18;;;16.00;99.90;;;;;;5046626;28;20056;-63
2023/10/13 04:29:45;;;;;;;14.93;7.65;;;16.00;99.90;;;;;;5047072;28;20049;-63
2023/10/13 04:32:14;;;;;;;15.05;7.20;;;16.10;99.90;;;;;;5048510;28;20187;-63
2023/10/13 04:34:45;;;;;;;12.13;6.97;;;16.10;99.90;;;;;;5045928;28;20051;-63
2023/10/13 04:37:32;;;;;;;17.92;7.15;;;16.10;99.90;;;;;;5048402;28;20094;-62
2023/10/13 04:40:09;;;;;;;12.43;7.07;;;16.10;99.90;;;;;;5047986;28;20045;-63
2023/10/13 04:42:53;;;;;;;13.98;7.50;;;16.10;99.90;;;;;;5078616;28;20045;-63
2023/10/13 04:48:27;;;;;;;13.83;8.40;;;16.00;99.90;;;;;;5046686;28;20056;-63
2023/10/13 04:51:34;;;;;;;13.13;8.30;;;16.10;99.90;;;;;;5035822;28;20114;-62
2023/10/13 04:54:00;;;;;;;17.60;9.02;;;16.10;99.90;;;;;;5045170;28;20052;-63
2023/10/13 04:59:35;;;;;;;12.05;7.68;;;16.10;99.90;;;;;;5047611;28;20122;-62
2023/10/13 05:49:18;;;;;;;9.20;6.90;;;16.10;99.90;;;;;;5046529;28;20407;-62
2023/10/13 06:30:04;;;;;;;4.32;3.10;;;15.90;99.90;;;;;;5050100;28;20045;-62
2023/10/13 06:32:31;;;;;;;3.72;3.10;;;15.90;99.90;;;;;;5050582;28;20110;-61
2023/10/13 06:34:58;;;;;;;3.55;3.25;;;15.90;99.90;;;;;;5049103;28;20041;-62
2023/10/13 06:37:30;;;;;;;3.33;3.03;;;16.00;99.90;;;;;;5050875;28;20155;-61
2023/10/13 06:40:25;;;;;;;4.50;3.05;;;15.90;99.90;;;;;;5048873;28;20123;-62
2023/10/13 06:42:53;;;;;;;3.03;2.47;;;15.90;99.90;;;;;;5049727;28;20105;-61
2023/10/13 06:45:20;;;;;;;4.22;2.47;;;15.90;99.90;;;;;;5049043;28;20487;-61
2023/10/13 06:47:46;;;;;;;2.97;2.63;;;15.90;99.90;;;;;;5049257;28;20499;-67
2023/10/13 06:50:15;;;;;;;4.00;3.05;;;15.90;99.90;;;;;;5050363;28;20040;-61
2023/10/13 06:52:46;;;;;;;2.97;2.78;;;15.80;99.90;;;;;;5048915;28;20396;-61
2023/10/13 06:55:23;;;;;;;4.80;2.85;;;15.80;99.90;;;;;;5049758;28;20506;-61
2023/10/13 06:57:51;;;;;;;2.53;2.35;;;15.90;99.90;;;;;;5049189;28;20052;-61
2023/10/13 07:00:27;;;;;;;2.63;2.42;;;15.90;99.90;;;;;;5050993;28;20090;-61
2023/10/13 07:02:53;;;;;;;2.28;2.17;;;15.90;99.90;;;;;;5054190;28;20048;-61
2023/10/13 07:05:19;;;;;;;2.35;2.15;;;15.90;99.90;;;;;;5048368;28;20393;-61
2023/10/13 07:07:48;;;;;;;3.15;2.17;;;15.90;99.90;;;;;;5048375;28;20048;-61
2023/10/13 07:10:13;;;;;;;2.45;2.25;;;16.00;99.90;;;;;;5057250;28;20080;-62
2023/10/13 07:12:43;;;;;;;2.22;2.10;;;16.00;99.90;;;;;;5063100;28;20072;-62
2023/10/13 07:15:19;;;;;;;3.53;1.88;;;15.90;99.90;;;;;;5087542;28;20056;-62
2023/10/13 07:17:54;;;;;;;2.05;1.70;;;16.00;99.90;;;;;;5053364;28;20600;-62
2023/10/13 07:20:33;;;;;;;2.50;1.42;;;16.00;99.90;;;;;;5092432;28;20044;-62
2023/10/13 07:23:06;;;;;;;1.98;1.40;;;16.10;99.90;;;;;;5060013;28;20380;-61
2023/10/13 07:25:32;;;;;;;3.53;1.50;;;16.10;99.90;;;;;;5049839;28;20059;-61
2023/10/13 07:28:08;;;;;;;2.22;1.63;;;16.10;99.90;;;;;;5048382;28;20442;-61
2023/10/13 07:31:20;;;;;;;2.03;1.23;;;16.20;99.90;;;;;;5048636;28;20099;-62
2023/10/13 07:33:21;;;;;;;2.80;1.17;;;16.20;99.90;;;;;;5041840;28;20041;-61
2023/10/13 07:35:53;;;;;;;2.55;1.33;;;16.30;99.90;;;;;;5048134;28;20118;-79
2023/10/13 07:38:21;;;;;;;3.00;1.23;;;16.20;99.90;;;;;;5049346;28;20411;-62
2023/10/13 07:40:51;;;;;;;2.95;1.48;;;16.20;99.90;;;;;;5050368;28;20080;-62
2023/10/13 07:43:21;;;;;;;4.03;1.38;;;16.20;99.90;;;;;;5052329;28;20106;-61
2023/10/13 07:45:51;;;;;;;2.97;1.20;;;16.20;99.90;;;;;;5048374;28;20460;-61
2023/10/13 07:48:20;;;;;;;3.80;1.80;;;16.20;99.90;;;;;;5047678;28;20048;-61
2023/10/13 07:51:33;;;;;;;1.60;1.50;;;16.20;99.90;;;;;;5047972;28;20525;-61
2023/10/13 07:53:52;;;;;;;6.72;1.70;;;16.20;99.90;;;;;;5044437;28;20557;-61
2023/10/13 07:56:18;;;;;;;8.07;1.88;;;16.20;99.90;;;;;;5048498;28;20096;-61
2023/10/13 07:59:00;;;;;;;7.07;1.80;;;16.20;99.90;;;;;;5062224;28;20362;-61
2023/10/13 08:01:26;;;;;;;2.88;1.52;;;16.20;99.90;;;;;;5056019;28;20056;-61
2023/10/13 08:04:05;;;;;;;3.45;1.77;;;16.20;99.90;;;;;;5051031;28;20068;-62
2023/10/13 08:06:31;;;;;;;8.07;2.33;;;16.20;99.90;;;;;;5050225;28;20107;-62
2023/10/13 08:09:43;;;;;;;7.68;2.20;;;16.10;99.90;;;;;;5056626;28;20033;-62
2023/10/13 08:11:43;;;;;;;3.72;1.95;;;16.10;99.90;;;;;;5024779;28;20697;-62
2023/10/13 08:14:12;;;;;;;4.60;1.88;;;16.20;99.90;;;;;;5045569;28;20051;-62
2023/10/13 08:16:46;;;;;;;4.50;1.90;;;16.20;99.90;;;;;;5049106;28;20379;-62
2023/10/13 08:19:59;;;;;;;7.57;2.03;;;16.10;99.90;;;;;;5041115;28;20140;-62
2023/10/13 08:32:24;;;;;;;3.92;1.67;;;16.00;99.90;;;;;;5059863;28;20075;-62
2023/10/13 08:45:20;;;;;;;12.77;2.05;;;16.20;99.90;;;;;;5065571;28;20072;-62
2023/10/13 08:48:07;;;;;;;11.15;3.00;;;16.30;99.90;;;;;;5058133;28;20052;-62
2023/10/13 08:53:28;;;;;;;7.45;2.13;;;16.20;99.90;;;;;;5062224;28;20406;-62
2023/10/13 08:59:05;;;;;;;7.80;1.92;;;16.40;99.90;;;;;;5046034;28;20053;-62
2023/10/13 09:12:25;;;;;;;9.93;2.22;;;16.70;99.90;;;;;;5046917;28;20495;-62
2023/10/13 09:15:04;;;;;;;9.13;2.50;;;16.70;99.90;;;;;;5047169;28;20025;-62
2023/10/13 09:23:07;;;;;;;8.77;2.65;;;16.90;99.90;;;;;;5047416;28;20119;-61
2023/10/13 09:25:37;;;;;;;9.57;2.95;;;17.00;99.90;;;;;;5047578;28;20528;-62
2023/10/13 09:28:14;;;;;;;5.38;2.05;;;17.10;99.90;;;;;;5046129;28;20049;-62
2023/10/13 09:30:56;;;;;;;5.43;2.40;;;17.00;99.90;;;;;;5056562;28;20045;-61
2023/10/13 09:33:47;;;;;;;7.97;2.95;;;17.10;99.90;;;;;;5045276;28;20049;-62
2023/10/13 09:36:17;;;;;;;4.10;2.45;;;17.20;99.90;;;;;;5046798;28;20119;-62
2023/10/13 09:39:10;;;;;;;;;;;17.20;99.90;;;;;;5039899;28;20052;-61
2023/10/13 09:41:32;;;;;;;11.40;2.80;;;17.30;99.90;;;;;;5050567;28;20465;-84
2023/10/13 09:43:58;;;;;;;12.27;3.70;;;17.40;99.90;;;;;;5058293;28;20056;-61
2023/10/13 09:46:28;;;;;;;12.80;3.20;;;17.50;99.90;;;;;;5074636;28;20083;-85
2023/10/13 09:49:06;;;;;;;10.82;3.55;;;17.60;99.90;;;;;;5034107;28;20036;-62
2023/10/13 09:51:32;;;;;;;13.05;3.15;;;17.60;99.90;;;;;;5045164;28;20056;-62
2023/10/13 09:54:16;;;;;;;12.20;3.05;;;17.60;99.90;;;;;;5049875;28;20418;-62
2023/10/13 09:56:57;;;;;;;9.00;2.90;;;17.70;99.90;;;;;;5052404;28;20106;-62
2023/10/13 09:59:53;;;;;;;5.25;2.47;;;17.70;99.90;;;;;;5060586;28;20052;-62
2023/10/13 10:02:28;;;;;;;13.05;3.42;;;17.70;99.90;;;;;;5049770;28;20060;-61
2023/10/13 10:05:12;;;;;;;12.55;3.78;;;17.80;99.90;;;;;;5050909;28;20482;-62
2023/10/13 10:07:39;;;;;;;8.40;3.13;;;17.80;99.90;;;;;;5035863;28;20777;-61
2023/10/13 10:10:08;;;;;;;15.60;3.10;;;17.90;99.90;;;;;;5044403;28;20044;-62
2023/10/13 10:12:57;;;;;;;9.25;3.20;;;18.00;99.90;;;;;;5048618;28;20072;-62
2023/10/13 10:15:33;;;;;;;11.55;3.53;;;18.10;99.90;;;;;;5049818;28;20063;-62
2023/10/13 10:18:00;;;;;;;8.35;4.10;;;18.20;99.90;;;;;;5051038;28;20049;-62
2023/10/13 10:20:42;;;;;;;10.02;3.85;;;18.20;99.90;;;;;;5048648;28;20437;-62
2023/10/13 10:23:21;;;;;;;13.85;3.88;;;18.40;99.90;;;;;;5050889;28;20053;-61
2023/10/13 10:25:50;;;;;;;8.50;3.40;;;18.40;99.90;;;;;;5050554;28;20049;-61
2023/10/13 10:28:16;;;;;;;8.38;3.00;;;18.40;99.90;;;;;;5050215;28;20108;-61
2023/10/13 10:30:43;;;;;;;6.68;3.15;;;18.40;99.90;;;;;;5083028;28;20585;-61
2023/10/13 10:33:15;;;;;;;10.02;3.47;;;18.40;99.90;;;;;;5048877;28;20185;-63
2023/10/13 10:35:46;;;;;;;6.80;3.08;;;18.40;99.90;;;;;;5048092;28;20092;-61
2023/10/13 10:38:32;;;;;;;9.30;3.22;;;18.40;99.90;;;;;;5048890;28;20063;-61
2023/10/13 10:41:04;;;;;;;10.18;3.47;;;18.50;99.90;;;;;;5050561;28;20124;-61
2023/10/13 10:43:42;;;;;;;8.57;3.30;;;18.40;99.90;;;;;;5050208;28;20045;-61
2023/10/13 10:46:28;;;;;;;10.55;3.15;;;18.40;99.90;;;;;;5049247;28;20045;-62
2023/10/13 10:49:00;;;;;;;7.35;2.90;;;18.50;99.90;;;;;;5063550;28;20052;-62
2023/10/13 10:51:31;;;;;;;10.75;2.97;;;18.50;99.90;;;;;;5066658;28;20425;-61
2023/10/13 10:54:10;;;;;;;11.25;3.45;;;18.60;99.90;;;;;;5064098;28;20033;-62
2023/10/13 10:56:36;;;;;;;10.48;2.55;;;18.70;99.90;;;;;;5048049;28;20040;-61
2023/10/13 10:59:04;;;;;;;10.15;3.25;;;18.80;99.90;;;;;;5048518;28;20438;-62
2023/10/13 11:01:38;;;;;;;8.88;3.50;;;18.70;99.90;;;;;;5049902;28;20052;-61
2023/10/13 11:06:56;;;;;;;7.40;3.13;;;18.90;99.90;;;;;;5049571;28;20057;-61
2023/10/13 11:14:59;;;;;;;18.88;3.40;;;18.90;99.90;;;;;;5034713;28;20041;-61
2023/10/13 11:17:48;;;;;;;5.65;3.00;;;18.90;99.90;;;;;;5048907;28;20071;-62
2023/10/13 11:20:25;;;;;;;13.93;2.97;;;19.00;99.90;;;;;;5047397;28;20060;-62
2023/10/13 11:22:52;;;;;;;13.27;2.88;;;19.10;99.90;;;;;;5049151;28;20547;-62
2023/10/13 11:25:34;;;;;;;8.20;3.53;;;19.10;99.90;;;;;;5048514;28;20040;-62
2023/10/13 11:28:17;;;;;;;14.48;2.88;;;19.20;99.90;;;;;;5048420;28;20063;-62
2023/10/13 11:30:45;;;;;;;9.23;3.00;;;19.30;99.90;;;;;;5048769;28;20129;-62
2023/10/13 11:33:17;;;;;;;5.55;2.65;;;19.40;99.90;;;;;;5047093;28;20045;-62
2023/10/13 11:35:55;;;;;;;20.10;4.13;;;19.40;99.90;;;;;;5080988;28;20044;-62
2023/10/13 11:38:28;;;;;;;9.40;2.88;;;19.30;99.90;;;;;;5047708;28;20041;-81
2023/10/13 11:48:41;;;;;;;11.73;3.15;;;19.30;99.90;;;;;;5059422;28;20044;-61
2023/10/13 11:51:24;;;;;;;9.75;2.30;;;19.40;99.90;;;;;;5065475;28;20513;-61
2023/10/13 11:53:53;;;;;;;5.90;3.00;;;19.40;99.90;;;;;;5063298;28;20039;-62
2023/10/13 11:56:22;;;;;;;;;;;19.40;99.90;;;;;;5063927;28;20044;-61
2023/10/13 11:58:48;;;;;;;6.93;2.50;;;19.50;99.90;;;;;;5049981;28;19925;-61
2023/10/13 12:11:44;;;;;;;12.27;3.22;;;19.30;99.90;;;;;;5051223;28;20507;-62
2023/10/13 12:14:27;;;;;;;2.65;1.70;;;19.20;99.90;;;;;;5048354;28;20453;-61
2023/10/13 12:16:53;;;;;;;12.35;3.10;;;19.10;99.90;;;;;;5046592;28;20045;-63
2023/10/13 12:19:24;;;;;;;5.57;2.25;;;19.10;99.90;;;;;;5047598;28;20051;-62
2023/10/13 12:21:54;;;;;;;12.68;3.13;;;19.10;99.90;;;;;;5047024;28;20059;-62
2023/10/13 12:24:39;;;;;;;8.98;3.38;;;19.10;99.90;;;;;;5059719;28;20454;-62
2023/10/13 12:27:23;;;;;;;10.38;3.53;;;19.20;99.90;;;;;;5076406;28;20130;-62
2023/10/13 12:29:56;;;;;;;10.10;2.53;;;19.20;99.90;;;;;;5044614;28;20041;-63
2023/10/13 12:32:25;;;;;;;13.10;3.35;;;19.20;99.90;;;;;;5048221;28;20059;-62
2023/10/13 12:37:49;;;;;;;15.98;4.22;;;19.30;99.90;;;;;;5049070;28;20049;-63
2023/10/13 12:54:23;;;;;;;10.07;3.22;;;19.50;99.90;;;;;;5045929;28;20076;-62
2023/10/13 12:56:43;;;;;;;12.35;3.15;;;19.40;99.90;;;;;;5049897;28;20475;-70
2023/10/13 12:59:15;;;;;;;9.70;3.35;;;19.40;99.90;;;;;;5056316;28;20053;-63
2023/10/13 13:01:44;;;;;;;8.23;3.08;;;19.30;99.90;;;;;;5050977;28;20056;-62
2023/10/13 13:04:19;;;;;;;10.00;3.47;;;19.20;99.90;;;;;;5058201;28;20486;-62
2023/10/13 13:06:47;;;;;;;6.15;3.05;;;19.20;99.90;;;;;;5063989;28;20075;-63
2023/10/13 13:09:13;;;;;;;8.10;3.30;;;19.10;99.90;;;;;;5049035;28;20043;-62
2023/10/13 13:11:42;;;;;;;8.20;3.50;;;19.10;99.90;;;;;;5047803;28;20041;-62
2023/10/13 13:14:08;;;;;;;8.47;3.60;;;19.00;99.90;;;;;;5047188;28;20040;-62
2023/10/13 13:16:34;;;;;;;6.63;3.60;;;19.00;99.90;;;;;;5050911;28;20317;-62
2023/10/13 13:19:09;;;;;;;17.42;4.47;;;19.00;99.90;;;;;;5060826;28;20053;-62
2023/10/13 13:21:36;;;;;;;12.40;4.05;;;18.90;99.90;;;;;;5051669;28;20526;-62
2023/10/13 13:24:04;;;;;;;9.00;3.72;;;18.90;99.90;;;;;;5059087;28;20041;-62
2023/10/13 13:26:31;;;;;;;14.48;3.30;;;18.90;99.90;;;;;;5054330;28;20515;-63
2023/10/13 13:28:56;;;;;;;12.55;3.85;;;18.80;99.90;;;;;;5077470;28;20120;-62
2023/10/13 13:31:26;;;;;;;8.48;3.45;;;18.90;99.90;;;;;;5047102;28;20143;-63
2023/10/13 13:33:52;;;;;;;9.65;3.55;;;18.80;99.90;;;;;;5042393;28;20701;-62
2023/10/13 13:36:19;;;;;;;10.93;4.07;;;18.80;99.90;;;;;;5065948;28;20049;-62
2023/10/13 13:39:00;;;;;;;7.05;3.25;;;18.80;99.90;;;;;;5076840;28;20110;-77
2023/10/13 13:41:25;;;;;;;6.10;3.00;;;18.70;99.90;;;;;;5052363;28;20097;-63
2023/10/13 13:43:57;;;;;;;9.50;3.60;;;18.70;99.90;;;;;;5045413;28;20033;-62
2023/10/13 13:46:24;;;;;;;9.05;3.45;;;18.70;99.90;;;;;;5051335;28;20174;-61
2023/10/13 13:49:00;;;;;;;11.75;3.50;;;18.70;99.90;;;;;;5050500;28;20376;-62
2023/10/13 13:51:27;;;;;;;7.88;3.42;;;18.60;99.90;;;;;;5054030;28;20057;-62
2023/10/13 13:53:55;;;;;;;14.98;4.80;;;18.60;99.90;;;;;;5055421;28;20056;-62
2023/10/13 13:56:25;;;;;;;15.45;4.15;;;18.60;99.90;;;;;;5043827;28;20045;-62
2023/10/13 13:58:53;;;;;;;18.90;3.58;;;18.60;99.90;;;;;;5043483;28;20052;-62
2023/10/13 14:01:21;;;;;;;13.48;3.92;;;18.60;99.90;;;;;;5040095;28;20376;-62
2023/10/13 14:03:50;;;;;;;12.45;5.28;;;18.60;99.90;;;;;;5051202;28;20041;-62
2023/10/13 14:06:23;;;;;;;11.20;3.85;;;18.60;99.90;;;;;;5048969;28;20123;-62
2023/10/13 14:08:59;;;;;;;9.35;3.78;;;18.60;99.90;;;;;;5047653;28;20049;-75
2023/10/13 14:14:12;;;;;;;12.68;3.33;;;18.60;99.90;;;;;;5049637;28;20081;-63
2023/10/13 14:16:47;;;;;;;7.13;3.45;;;18.60;99.90;;;;;;5051271;28;20076;-62
2023/10/13 14:19:47;;;;;;;8.38;3.75;;;18.60;99.90;;;;;;5054449;28;20061;-62
2023/10/13 14:22:06;;;;;;;9.88;3.90;;;18.70;99.90;;;;;;5051830;28;20041;-62
2023/10/13 14:24:35;;;;;;;12.13;3.50;;;18.60;99.90;;;;;;5057399;28;20129;-63
2023/10/13 14:27:19;;;;;;;14.30;3.90;;;18.60;99.90;;;;;;5056415;28;20024;-62
2023/10/13 14:29:44;;;;;;;17.80;4.80;;;18.70;99.90;;;;;;5041617;28;20033;-63
2023/10/13 14:32:17;;;;;;;9.63;3.60;;;18.60;99.90;;;;;;5060780;28;20483;-62
2023/10/13 14:34:45;;;;;;;12.20;3.97;;;18.70;99.90;;;;;;5056608;28;20063;-62
2023/10/13 14:37:12;;;;;;;10.90;4.25;;;18.70;99.90;;;;;;5054746;28;20041;-62
2023/10/13 14:39:39;;;;;;;8.95;4.03;;;18.70;99.90;;;;;;5046370;28;20079;-63
2023/10/13 14:42:08;;;;;;;14.10;4.10;;;18.70;99.90;;;;;;5050128;28;20086;-62
2023/10/13 14:45:17;;;;;;;17.67;4.05;;;18.70;99.90;;;;;;5052394;28;20127;-68
2023/10/13 14:47:44;;;;;;;13.52;4.03;;;18.70;99.90;;;;;;5065795;28;20044;-62
2023/10/13 14:50:17;;;;;;;14.55;4.28;;;18.70;99.90;;;;;;5064597;28;20324;-62
2023/10/13 14:52:43;;;;;;;9.65;4.03;;;18.70;99.90;;;;;;5067659;28;20055;-62
2023/10/13 14:55:18;;;;;;;12.95;3.47;;;18.70;99.90;;;;;;5053298;28;20380;-62
2023/10/13 14:57:49;;;;;;;8.10;3.25;;;18.70;99.90;;;;;;5081102;28;20453;-62
2023/10/13 15:00:34;;;;;;;12.23;3.38;;;18.70;99.90;;;;;;5055793;28;20391;-62
2023/10/13 15:03:01;;;;;;;8.80;3.78;;;18.70;99.90;;;;;;5050797;28;20118;-62
2023/10/13 15:05:29;;;;;;;9.52;3.35;;;18.60;99.90;;;;;;5057222;28;20047;-62
2023/10/13 15:07:56;;;;;;;12.25;4.00;;;18.70;99.90;;;;;;5050956;28;20037;-62
2023/10/13 15:10:24;;;;;;;10.10;3.58;;;18.70;99.90;;;;;;5047260;28;20073;-62
2023/10/13 15:12:50;;;;;;;7.55;3.65;;;18.70;99.90;;;;;;5050172;28;20072;-75
2023/10/13 15:15:16;;;;;;;12.10;4.25;;;18.60;99.90;;;;;;5057774;28;20533;-84
2023/10/13 15:17:45;;;;;;;11.50;3.80;;;18.60;99.90;;;;;;5064614;28;20040;-62
2023/10/13 15:20:18;;;;;;;10.93;3.47;;;18.70;99.90;;;;;;5068710;22;20045;-62
2023/10/13 15:25:50;;;;;;;5.15;2.67;;;18.60;99.90;;;;;;5050460;28;20352;-62
2023/10/13 15:28:20;;;;;;;10.02;4.10;;;18.60;99.90;;;;;;5046180;28;20053;-62
2023/10/13 15:30:56;;;;;;;11.25;4.03;;;18.50;99.90;;;;;;5042238;28;20072;-62
2023/10/13 15:33:25;;;;;;;7.72;3.95;;;18.50;99.90;;;;;;5045890;28;20055;-62
2023/10/13 15:35:51;;;;;;;9.05;3.67;;;18.50;99.90;;;;;;5049001;28;20052;-62
2023/10/13 15:38:22;;;;;;;17.38;4.15;;;18.40;99.90;;;;;;5049427;28;20049;-63
2023/10/13 15:40:57;;;;;;;13.02;4.32;;;18.40;99.90;;;;;;5051150;28;20037;-64
2023/10/13 15:43:55;;;;;;;;;;;18.30;99.90;;;;;;5045408;28;20054;-63
2023/10/13 15:46:56;;;;;;;11.68;3.53;;;18.30;99.90;;;;;;5056770;23;20011;-63
2023/10/13 15:49:50;;;;;;;9.30;3.80;;;18.20;99.90;;;;;;5046693;28;20344;-63
2023/10/13 15:52:48;;;;;;;8.98;4.03;;;18.10;99.90;;;;;;5037982;28;20521;-62
2023/10/13 15:55:17;;;;;;;9.35;3.22;;;18.10;99.90;;;;;;5048940;28;20071;-62
2023/10/13 15:57:43;;;;;;;12.40;3.67;;;18.10;99.90;;;;;;5048700;28;20128;-62
2023/10/13 16:00:23;;;;;;;14.52;4.00;;;18.00;99.90;;;;;;5047468;28;20052;-62
2023/10/13 16:02:59;;;;;;;11.88;3.47;;;18.00;99.90;;;;;;5048933;28;20049;-62
2023/10/13 16:05:34;;;;;;;11.10;4.57;;;18.00;99.90;;;;;;5047454;28;20049;-62
2023/10/13 16:08:03;;;;;;;12.02;4.68;;;18.00;99.90;;;;;;5048212;28;20041;-62
2023/10/13 16:10:29;;;;;;;10.27;4.05;;;18.00;99.90;;;;;;5047917;28;20469;-62
2023/10/13 16:12:59;;;;;;;17.73;4.45;;;17.90;99.90;;;;;;5047832;28;20122;-62
2023/10/13 16:15:25;;;;;;;14.15;4.35;;;17.90;99.90;;;;;;5047372;28;20045;-62
2023/10/13 16:17:54;;;;;;;12.55;3.75;;;17.90;99.90;;;;;;5030215;28;20090;-62
2023/10/13 16:20:20;;;;;;;10.98;3.50;;;17.80;99.90;;;;;;5048778;28;20179;-62
2023/10/13 16:22:48;;;;;;;10.63;4.65;;;17.90;99.90;;;;;;5045238;28;20044;-62
2023/10/13 16:25:15;;;;;;;9.80;4.15;;;17.90;99.90;;;;;;5048182;28;20056;-61
2023/10/13 16:27:42;;;;;;;11.57;4.35;;;17.80;99.90;;;;;;5046276;28;20372;-62
2023/10/13 16:30:14;;;;;;;14.98;4.72;;;17.80;99.90;;;;;;5047132;28;20092;-62
2023/10/13 16:32:49;;;;;;;9.10;3.42;;;17.80;99.90;;;;;;5047123;28;20495;-63
2023/10/13 16:35:18;;;;;;;6.65;3.65;;;17.70;99.90;;;;;;5042984;28;20036;-62